createdAt,value
2018-03-26T00:00:31.146Z,13.37
2018-03-26T00:02:58.588Z,13.97
2018-03-26T00:05:26.032Z,16.50
2018-03-26T00:07:54.241Z,16.65
2018-03-26T00:10:22.452Z,15.50
2018-03-26T00:12:49.893Z,16.00
2018-03-26T00:15:17.350Z,15.35
2018-03-26T00:17:44.811Z,15.98
2018-03-26T00:20:12.248Z,16.03
2018-03-26T00:22:39.704Z,16.20
2018-03-26T00:25:07.144Z,16.58
2018-03-26T00:27:34.587Z,16.55
2018-03-26T00:30:02.035Z,16.02
2018-03-26T00:32:29.493Z,17.00
2018-03-26T00:34:56.940Z,17.05
2018-03-26T00:37:25.154Z,15.80
2018-03-26T00:39:52.599Z,16.27
2018-03-26T00:42:20.039Z,16.63
2018-03-26T00:44:47.495Z,17.15
2018-03-26T00:47:14.954Z,17.02
2018-03-26T00:49:42.396Z,16.50
2018-03-26T00:52:10.620Z,15.98
2018-03-26T00:54:38.069Z,16.80
2018-03-26T00:57:05.513Z,15.13
2018-03-26T00:59:32.959Z,15.77
2018-03-26T01:02:00.416Z,16.48
2018-03-26T01:04:27.861Z,16.03
2018-03-26T01:06:55.320Z,15.50
2018-03-26T01:09:23.528Z,17.52
2018-03-26T01:11:51.748Z,17.07
2018-03-26T01:14:19.179Z,16.05
2018-03-26T01:16:46.627Z,16.00
2018-03-26T01:19:14.076Z,16.85
2018-03-26T01:21:41.523Z,17.65
2018-03-26T01:24:08.977Z,18.52
2018-03-26T01:26:36.415Z,18.73
2018-03-26T01:29:03.881Z,18.37
2018-03-26T01:31:31.322Z,17.55
2018-03-26T01:33:58.764Z,16.50
2018-03-26T01:36:26.228Z,19.50
2018-03-26T01:38:54.441Z,18.20
2018-03-26T01:41:21.888Z,17.20
2018-03-26T01:43:49.339Z,16.65
2018-03-26T01:46:16.788Z,17.42
2018-03-26T01:48:44.230Z,16.50
2018-03-26T01:51:11.671Z,16.90
2018-03-26T01:53:39.107Z,17.77
2018-03-26T01:56:07.315Z,14.40
2018-03-26T01:58:35.525Z,14.77
2018-03-26T02:01:02.955Z,14.43
2018-03-26T02:03:30.405Z,17.52
2018-03-26T02:05:57.903Z,15.90
2018-03-26T02:08:25.343Z,15.23
2018-03-26T02:10:52.781Z,13.73
2018-03-26T02:13:20.234Z,14.40
2018-03-26T02:15:47.681Z,14.10
2018-03-26T02:18:15.891Z,15.53
2018-03-26T02:20:43.331Z,15.40
2018-03-26T02:23:10.786Z,14.30
2018-03-26T02:25:38.211Z,14.90
2018-03-26T02:28:06.416Z,15.23
2018-03-26T02:30:34.615Z,15.70
2018-03-26T02:33:02.061Z,15.47
2018-03-26T02:35:29.508Z,15.73
2018-03-26T02:37:56.948Z,17.43
2018-03-26T02:40:25.149Z,15.70
2018-03-26T02:42:53.358Z,14.33
2018-03-26T02:45:20.798Z,15.10
2018-03-26T02:47:48.236Z,15.13
2018-03-26T02:50:15.676Z,17.30
2018-03-26T02:52:43.880Z,14.80
2018-03-26T02:55:12.077Z,14.80
2018-03-26T02:57:40.288Z,14.93
2018-03-26T03:00:07.724Z,18.90
2018-03-26T03:02:35.167Z,19.30
2018-03-26T03:05:02.603Z,20.15
2018-03-26T03:07:30.059Z,21.37
2018-03-26T03:09:57.496Z,20.83
2018-03-26T03:12:24.931Z,20.52
2018-03-26T03:14:52.379Z,19.90
2018-03-26T03:17:19.818Z,20.55
2018-03-26T03:19:48.020Z,19.80
2018-03-26T03:22:16.228Z,20.20
2018-03-26T03:24:43.678Z,19.27
2018-03-26T03:27:11.125Z,19.25
2018-03-26T03:29:38.554Z,19.80
2018-03-26T03:32:06.779Z,19.80
2018-03-26T03:34:34.972Z,20.42
2018-03-26T03:37:02.419Z,20.88
2018-03-26T03:39:29.859Z,20.42
2018-03-26T03:41:57.303Z,21.55
2018-03-26T03:44:24.734Z,20.98
2018-03-26T03:46:52.168Z,20.10
2018-03-26T03:49:19.623Z,20.60
2018-03-26T03:51:47.064Z,20.50
2018-03-26T03:54:14.511Z,20.70
2018-03-26T03:56:41.958Z,20.67
2018-03-26T03:59:09.415Z,22.02
2018-03-26T04:01:36.850Z,22.57
2018-03-26T04:04:05.067Z,21.52
2018-03-26T04:06:32.507Z,21.17
2018-03-26T04:08:59.951Z,22.65
2018-03-26T04:11:27.387Z,23.83
2018-03-26T04:13:55.618Z,22.80
2018-03-26T04:16:23.052Z,22.33
2018-03-26T04:18:51.270Z,23.60
2018-03-26T04:21:19.459Z,21.73
2018-03-26T04:23:47.678Z,22.08
2018-03-26T04:26:15.122Z,19.75
2018-03-26T04:28:42.556Z,20.90
2018-03-26T04:31:09.992Z,22.60
2018-03-26T04:33:38.198Z,23.15
2018-03-26T04:36:06.411Z,23.02
2018-03-26T04:38:33.859Z,23.77
2018-03-26T04:41:01.293Z,23.03
2018-03-26T04:43:28.724Z,20.00
2018-03-26T04:45:56.167Z,19.13
2018-03-26T04:48:23.606Z,19.23
2018-03-26T04:50:51.071Z,19.07
2018-03-26T04:53:19.271Z,19.40
2018-03-26T04:55:47.465Z,21.47
2018-03-26T04:58:15.679Z,21.63
2018-03-26T05:00:43.106Z,19.30
2018-03-26T05:03:10.544Z,18.67
2018-03-26T05:05:37.976Z,19.73
2018-03-26T05:08:05.433Z,21.43
2018-03-26T05:10:32.863Z,20.50
2018-03-26T05:13:01.083Z,26.75
2018-03-26T05:15:28.523Z,26.77
2018-03-26T05:17:55.974Z,29.67
2018-03-26T05:20:23.423Z,27.10
2018-03-26T05:22:50.871Z,26.85
2018-03-26T05:25:18.318Z,27.03
2018-03-26T05:27:45.776Z,26.50
2018-03-26T05:30:13.215Z,25.67
2018-03-26T05:32:40.647Z,26.90
2018-03-26T05:35:08.095Z,26.45
2018-03-26T05:37:36.308Z,26.35
2018-03-26T05:40:03.744Z,24.75
2018-03-26T05:42:31.194Z,77.00
2018-03-26T05:44:58.631Z,33.00
2018-03-26T05:47:26.846Z,30.42
2018-03-26T05:49:54.286Z,26.83
2018-03-26T05:52:21.728Z,24.95
2018-03-26T05:54:49.180Z,25.42
2018-03-26T05:57:16.620Z,25.65
2018-03-26T05:59:44.062Z,25.88
2018-03-26T06:02:11.529Z,26.60
2018-03-26T06:04:39.725Z,26.55
2018-03-26T06:07:07.171Z,25.27
2018-03-26T06:09:34.611Z,25.42
2018-03-26T06:12:02.055Z,25.90
2018-03-26T06:14:30.263Z,26.35
2018-03-26T06:17:09.695Z,27.08
2018-03-26T06:19:37.122Z,26.35
2018-03-26T06:22:04.571Z,26.17
2018-03-26T06:24:32.915Z,26.65
2018-03-26T06:27:00.358Z,26.00
2018-03-26T06:29:28.554Z,26.30
2018-03-26T06:31:56.760Z,26.58
2018-03-26T06:34:24.972Z,27.25
2018-03-26T06:36:54.400Z,27.08
2018-03-26T06:39:23.603Z,27.15
2018-03-26T06:41:51.815Z,27.13
2018-03-26T06:44:19.315Z,25.57
2018-03-26T06:46:46.707Z,26.05
2018-03-26T06:49:14.143Z,26.67
2018-03-26T06:51:42.344Z,27.00
2018-03-26T06:54:10.559Z,27.42
2018-03-26T06:56:37.995Z,26.00
2018-03-26T06:59:05.435Z,28.70
2018-03-26T07:01:32.876Z,22.93
2018-03-26T07:04:00.307Z,22.60
2018-03-26T07:06:27.747Z,21.27
2018-03-26T07:08:55.951Z,23.63
2018-03-26T07:11:23.396Z,21.03
2018-03-26T07:13:50.838Z,22.57
2018-03-26T07:16:18.289Z,22.30
2018-03-26T07:18:46.512Z,23.33
2018-03-26T07:21:13.942Z,23.20
2018-03-26T07:23:41.388Z,23.63
2018-03-26T07:26:08.835Z,26.87
2018-03-26T07:28:36.291Z,27.20
2018-03-26T07:31:03.727Z,27.00
2018-03-26T07:33:31.193Z,27.70
2018-03-26T07:35:58.618Z,27.75
2018-03-26T07:38:26.060Z,26.87
2018-03-26T07:40:53.498Z,23.13
2018-03-26T07:43:21.704Z,24.00
2018-03-26T07:45:49.899Z,23.90
2018-03-26T07:48:18.103Z,23.40
2018-03-26T07:50:46.316Z,22.80
2018-03-26T07:53:13.759Z,25.80
2018-03-26T07:55:41.211Z,27.90
2018-03-26T07:58:08.653Z,26.00
2018-03-26T08:00:36.865Z,27.67
2018-03-26T08:03:04.295Z,26.30
2018-03-26T08:05:31.747Z,26.60
2018-03-26T08:07:59.187Z,26.52
2018-03-26T08:10:27.419Z,25.90
2018-03-26T08:12:54.851Z,25.48
2018-03-26T08:15:23.067Z,26.30
2018-03-26T08:17:51.291Z,26.50
2018-03-26T08:20:18.759Z,29.02
2018-03-26T08:22:46.197Z,28.12
2018-03-26T08:25:13.656Z,28.23
2018-03-26T08:27:41.099Z,25.98
2018-03-26T08:30:08.599Z,28.98
2018-03-26T08:32:36.065Z,30.30
2018-03-26T08:35:04.247Z,28.93
2018-03-26T08:37:32.447Z,27.42
2018-03-26T08:40:00.658Z,25.17
2018-03-26T08:42:28.151Z,25.67
2018-03-26T08:44:55.539Z,25.40
2018-03-26T08:47:22.971Z,25.55
2018-03-26T08:49:51.249Z,26.37
2018-03-26T08:52:19.385Z,27.42
2018-03-26T08:54:46.854Z,26.65
2018-03-26T08:57:15.063Z,24.90
2018-03-26T08:59:43.297Z,27.37
2018-03-26T09:02:10.742Z,27.55
2018-03-26T09:04:38.942Z,26.80
2018-03-26T09:07:07.139Z,26.23
2018-03-26T09:09:35.344Z,24.10
2018-03-26T09:12:03.550Z,25.53
2018-03-26T09:14:31.000Z,25.43
2018-03-26T09:16:58.458Z,26.05
2018-03-26T09:19:25.894Z,25.15
2018-03-26T09:21:53.338Z,25.42
2018-03-26T09:24:20.783Z,25.60
2018-03-26T09:26:48.235Z,26.27
2018-03-26T09:29:15.693Z,25.62
2018-03-26T09:31:43.906Z,25.10
2018-03-26T09:34:12.118Z,25.07
2018-03-26T09:36:40.314Z,25.37
2018-03-26T09:39:07.772Z,23.73
2018-03-26T09:41:35.976Z,26.17
2018-03-26T09:44:04.197Z,24.60
2018-03-26T09:46:31.664Z,25.30
2018-03-26T09:48:59.882Z,24.73
2018-03-26T09:51:27.323Z,23.77
2018-03-26T09:53:54.763Z,25.45
2018-03-26T09:56:22.207Z,24.33
2018-03-26T09:58:49.678Z,25.37
2018-03-26T10:01:17.896Z,26.02
2018-03-26T10:03:45.328Z,26.20
2018-03-26T10:06:12.771Z,27.77
2018-03-26T10:08:40.213Z,26.80
2018-03-26T10:11:08.428Z,27.50
2018-03-26T10:13:36.631Z,25.88
2018-03-26T10:16:04.099Z,26.15
2018-03-26T10:18:32.312Z,24.98
2018-03-26T10:20:59.755Z,26.23
2018-03-26T10:23:27.883Z,24.60
2018-03-26T10:25:55.323Z,25.23
2018-03-26T10:28:23.579Z,25.40
2018-03-26T10:30:51.019Z,25.80
2018-03-26T10:33:18.475Z,26.55
2018-03-26T10:35:45.929Z,26.37
2018-03-26T10:38:13.390Z,25.58
2018-03-26T10:40:41.583Z,25.70
2018-03-26T10:43:09.780Z,25.63
2018-03-26T10:45:37.996Z,24.57
2018-03-26T10:48:05.431Z,25.90
2018-03-26T10:50:32.891Z,25.85
2018-03-26T10:53:00.327Z,27.05
2018-03-26T10:55:27.781Z,26.15
2018-03-26T10:57:55.211Z,26.00
2018-03-26T11:00:22.680Z,26.30
2018-03-26T11:02:50.108Z,25.75
2018-03-26T11:05:17.552Z,25.70
2018-03-26T11:07:44.983Z,24.97
2018-03-26T11:10:12.427Z,25.00
2018-03-26T11:12:39.874Z,26.77
2018-03-26T11:15:07.318Z,26.80
2018-03-26T11:17:34.764Z,27.00
2018-03-26T11:20:02.223Z,25.90
2018-03-26T11:22:29.679Z,26.55
2018-03-26T11:24:57.897Z,27.25
2018-03-26T11:27:25.339Z,27.10
2018-03-26T11:29:52.782Z,27.37
2018-03-26T11:32:20.217Z,26.97
2018-03-26T11:34:48.422Z,26.37
2018-03-26T11:37:16.630Z,26.70
2018-03-26T11:39:44.076Z,26.45
2018-03-26T11:42:11.523Z,27.73
2018-03-26T11:44:38.964Z,26.23
2018-03-26T11:47:07.174Z,27.07
2018-03-26T11:49:34.656Z,27.57
2018-03-26T11:52:02.059Z,27.73
2018-03-26T11:54:29.512Z,28.33
2018-03-26T11:56:56.952Z,26.85
2018-03-26T11:59:24.394Z,28.10
2018-03-26T12:01:51.851Z,26.80
2018-03-26T12:04:19.306Z,28.10
2018-03-26T12:06:46.754Z,27.37
2018-03-26T12:09:14.195Z,27.95
2018-03-26T12:11:42.403Z,27.47
2018-03-26T12:14:09.839Z,28.60
2018-03-26T12:16:37.295Z,29.10
2018-03-26T12:19:04.754Z,27.10
2018-03-26T12:21:32.213Z,26.80
2018-03-26T12:24:11.590Z,26.33
2018-03-26T12:26:39.060Z,26.30
2018-03-26T12:29:18.230Z,25.52
2018-03-26T12:31:45.770Z,28.25
2018-03-26T12:37:13.854Z,26.90
2018-03-26T12:39:42.069Z,25.50
2018-03-26T12:42:09.538Z,23.07
2018-03-26T12:44:48.976Z,23.17
2018-03-26T12:47:16.441Z,23.27
2018-03-26T12:49:43.893Z,23.50
2018-03-26T12:52:23.238Z,25.20
2018-03-26T12:54:50.689Z,21.80
2018-03-26T12:57:30.074Z,23.17
2018-03-26T12:59:58.302Z,23.37
2018-03-26T13:02:29.101Z,24.50
2018-03-26T13:04:57.314Z,22.90
2018-03-26T13:07:24.773Z,23.03
2018-03-26T13:09:52.239Z,22.50
2018-03-26T13:12:19.701Z,26.10
2018-03-26T13:14:47.149Z,24.63
2018-03-26T13:17:14.619Z,25.08
2018-03-26T13:19:42.077Z,27.23
2018-03-26T13:22:09.538Z,25.10
2018-03-26T13:24:36.997Z,24.90
2018-03-26T13:27:04.458Z,24.27
2018-03-26T13:29:31.910Z,25.00
2018-03-26T13:31:59.366Z,24.40
2018-03-26T13:34:26.820Z,27.98
2018-03-26T13:36:54.277Z,25.23
2018-03-26T13:39:21.746Z,23.40
2018-03-26T13:41:49.232Z,25.00
2018-03-26T13:44:16.665Z,24.33
2018-03-26T13:46:44.119Z,26.47
2018-03-26T13:49:11.579Z,26.00
2018-03-26T13:51:39.033Z,27.43
2018-03-26T13:54:06.499Z,26.30
2018-03-26T13:56:33.949Z,24.37
2018-03-26T13:59:01.422Z,26.53
2018-03-26T14:01:28.882Z,25.07
2018-03-26T14:03:56.347Z,27.07
2018-03-26T14:06:23.856Z,30.20
2018-03-26T14:09:04.042Z,29.95
2018-03-26T14:11:43.415Z,30.25
2018-03-26T14:14:23.545Z,30.62
2018-03-26T14:17:02.949Z,31.65
2018-03-26T14:19:30.427Z,30.45
2018-03-26T14:21:57.887Z,31.10
2018-03-26T14:24:25.399Z,30.80
2018-03-26T14:26:52.814Z,31.80
2018-03-26T14:29:20.278Z,33.43
2018-03-26T14:31:47.729Z,33.85
2018-03-26T14:34:15.191Z,32.83
2018-03-26T14:36:42.656Z,32.33
2018-03-26T14:39:10.102Z,33.17
2018-03-26T14:41:37.669Z,34.10
2018-03-26T14:44:05.125Z,34.03
2018-03-26T14:46:32.577Z,34.80
2018-03-26T14:49:00.040Z,33.40
2018-03-26T14:51:27.509Z,33.13
2018-03-26T14:53:54.961Z,32.58
2018-03-26T14:56:22.425Z,33.00
2018-03-26T14:58:49.865Z,33.25
2018-03-26T15:01:17.354Z,32.95
2018-03-26T15:03:45.561Z,34.45
2018-03-26T15:06:13.023Z,33.58
2018-03-26T15:08:40.489Z,32.90
2018-03-26T15:11:08.004Z,33.03
2018-03-26T15:13:35.420Z,33.35
2018-03-26T15:16:02.886Z,33.85
2018-03-26T15:18:30.351Z,32.72
2018-03-26T15:20:57.834Z,32.70
2018-03-26T15:23:26.059Z,35.25
2018-03-26T15:25:53.523Z,34.97
2018-03-26T15:28:20.978Z,35.37
2018-03-26T15:30:48.462Z,34.25
2018-03-26T15:33:15.926Z,35.30
2018-03-26T15:35:43.377Z,36.50
2018-03-26T15:38:10.846Z,35.60
2018-03-26T15:40:38.298Z,37.60
2018-03-26T15:43:05.775Z,35.05
2018-03-26T15:45:33.237Z,36.03
2018-03-26T15:48:01.460Z,35.97
2018-03-26T15:50:28.926Z,37.00
2018-03-26T15:52:56.381Z,34.60
2018-03-26T15:55:23.868Z,35.60
2018-03-26T15:57:51.302Z,34.92
2018-03-26T16:00:18.753Z,35.40
2018-03-26T16:02:51.825Z,35.15
2018-03-26T16:05:19.280Z,32.13
2018-03-26T18:03:08.905Z,35.20
2018-03-26T18:05:36.354Z,40.67
2018-03-26T18:08:03.819Z,41.47
2018-03-26T18:10:31.269Z,39.07
2018-03-26T18:12:58.726Z,40.23
2018-03-26T18:15:26.183Z,39.60
2018-03-26T18:17:53.641Z,41.27
2018-03-26T18:20:21.091Z,40.40
2018-03-26T18:22:48.595Z,41.20
2018-03-26T18:25:16.002Z,45.87
2018-03-26T18:27:43.466Z,45.47
2018-03-26T18:30:10.921Z,49.40
2018-03-26T18:32:38.381Z,45.03
2018-03-26T18:35:05.853Z,40.03
2018-03-26T18:37:33.361Z,40.00
2018-03-26T18:40:00.777Z,37.67
2018-03-26T18:42:28.231Z,37.60
2018-03-26T18:44:55.678Z,39.70
2018-03-26T18:47:23.144Z,49.47
2018-03-26T18:49:50.598Z,53.42
2018-03-26T18:52:18.057Z,57.90
2018-03-26T18:54:45.537Z,53.50
2018-03-26T18:57:13.773Z,53.08
2018-03-26T18:59:41.238Z,55.17
2018-03-26T19:02:08.697Z,54.90
2018-03-26T19:04:36.162Z,52.10
2018-03-26T19:07:03.619Z,54.38
2018-03-26T19:09:31.066Z,52.55
2018-03-26T19:11:58.515Z,56.13
2018-03-26T19:14:25.980Z,53.47
2018-03-26T19:16:53.447Z,52.35
2018-03-26T19:19:20.905Z,56.10
2018-03-26T19:21:48.374Z,61.25
2018-03-26T19:24:15.829Z,60.00
2018-03-26T19:26:43.289Z,51.80
2018-03-26T19:31:37.762Z,45.60
2018-03-26T19:34:05.238Z,60.03
2018-03-26T19:36:32.698Z,58.40
2018-03-26T19:39:00.166Z,55.50
2018-03-26T19:41:27.626Z,55.40
2018-03-26T19:43:55.103Z,54.80
2018-03-26T19:46:22.564Z,43.73
2018-03-26T19:48:50.017Z,44.47
2018-03-26T19:51:17.467Z,43.47
2018-03-26T19:53:44.932Z,41.43
2018-03-26T19:56:12.383Z,42.43
2018-03-26T19:58:39.844Z,44.30
2018-03-26T20:01:07.306Z,42.23
2018-03-26T20:03:34.761Z,43.07
2018-03-26T20:06:02.248Z,42.30
2018-03-26T20:08:30.475Z,41.03
2018-03-26T20:10:57.933Z,44.07
2018-03-26T20:13:25.406Z,39.40
2018-03-26T20:15:52.858Z,37.77
2018-03-26T20:18:20.330Z,40.80
2018-03-26T20:20:47.782Z,40.30
2018-03-26T20:23:15.295Z,49.67
2018-03-26T20:25:42.694Z,43.67
2018-03-26T20:28:10.151Z,40.40
2018-03-26T20:30:37.622Z,43.00
2018-03-26T20:33:05.098Z,39.43
2018-03-26T20:35:33.323Z,42.00
2018-03-26T20:38:00.782Z,40.83
2018-03-26T20:40:28.237Z,43.20
2018-03-26T20:42:55.689Z,42.03
2018-03-26T20:45:23.148Z,41.30
2018-03-26T20:47:50.597Z,45.80
2018-03-26T20:50:18.066Z,44.23
2018-03-26T20:52:45.521Z,40.10
2018-03-26T20:55:12.988Z,42.53
2018-03-26T20:57:40.438Z,41.60
2018-03-26T21:00:07.902Z,41.10
